sensor_id;sensor_type;location;lat;lon;timestamp;temperature;humidity
20528;DHT22;23612;50.894;10.700;2023-12-14T00:00:17;6.80;99.90
20528;DHT22;23612;50.894;10.700;2023-12-14T00:02:43;6.80;99.90
20528;DHT22;23612;50.894;10.700;2023-12-14T00:05:09;6.70;99.90
20528;DHT22;23612;50.894;10.700;2023-12-14T00:07:34;6.70;99.90
20528;DHT22;23612;50.894;10.700;2023-12-14T00:10:00;6.70;99.90
20528;DHT22;23612;50.894;10.700;2023-12-14T00:12:25;6.70;99.90
20528;DHT22;23612;50.894;10.700;2023-12-14T00:14:51;6.60;99.90
20528;DHT22;23612;50.894;10.700;2023-12-14T00:17:16;6.60;99.90
20528;DHT22;23612;50.894;10.700;2023-12-14T00:19:41;6.50;99.90
20528;DHT22;23612;50.894;10.700;2023-12-14T00:22:07;6.60;99.90
20528;DHT22;23612;50.894;10.700;2023-12-14T00:24:33;6.50;99.90
20528;DHT22;23612;50.894;10.700;2023-12-14T00:26:58;6.50;99.90
20528;DHT22;23612;50.894;10.700;2023-12-14T00:29:24;6.50;99.90
20528;DHT22;23612;50.894;10.700;2023-12-14T00:31:49;6.50;99.90
20528;DHT22;23612;50.894;10.700;2023-12-14T00:34:15;6.40;99.90
20528;DHT22;23612;50.894;10.700;2023-12-14T00:36:40;6.40;99.90
20528;DHT22;23612;50.894;10.700;2023-12-14T00:39:06;6.50;99.90
20528;DHT22;23612;50.894;10.700;2023-12-14T00:41:31;6.50;99.90
20528;DHT22;23612;50.894;10.700;2023-12-14T00:43:57;6.50;99.90
20528;DHT22;23612;50.894;10.700;2023-12-14T00:46:22;6.50;99.90
20528;DHT22;23612;50.894;10.700;2023-12-14T00:48:47;6.50;99.90
20528;DHT22;23612;50.894;10.700;2023-12-14T00:51:13;6.60;99.90
20528;DHT22;23612;50.894;10.700;2023-12-14T00:53:38;6.60;99.90
20528;DHT22;23612;50.894;10.700;2023-12-14T00:56:04;6.60;99.90
20528;DHT22;23612;50.894;10.700;2023-12-14T00:58:29;6.60;99.90
20528;DHT22;23612;50.894;10.700;2023-12-14T01:00:55;6.60;99.90
20528;DHT22;23612;50.894;10.700;2023-12-14T01:03:20;6.70;99.90
20528;DHT22;23612;50.894;10.700;2023-12-14T01:05:46;6.70;99.90
20528;DHT22;23612;50.894;10.700;2023-12-14T01:08:11;6.70;99.90
20528;DHT22;23612;50.894;10.700;2023-12-14T01:10:37;6.70;99.90
20528;DHT22;23612;50.894;10.700;2023-12-14T01:13:02;6.70;99.90
20528;DHT22;23612;50.894;10.700;2023-12-14T01:15:28;6.70;99.90
20528;DHT22;23612;50.894;10.700;2023-12-14T01:17:54;6.70;99.90
20528;DHT22;23612;50.894;10.700;2023-12-14T01:20:19;6.60;99.90
20528;DHT22;23612;50.894;10.700;2023-12-14T01:22:45;6.60;99.90
20528;DHT22;23612;50.894;10.700;2023-12-14T01:25:10;6.60;99.90
20528;DHT22;23612;50.894;10.700;2023-12-14T01:27:36;6.60;99.90
20528;DHT22;23612;50.894;10.700;2023-12-14T01:30:01;6.60;99.90
20528;DHT22;23612;50.894;10.700;2023-12-14T01:32:27;6.60;99.90
20528;DHT22;23612;50.894;10.700;2023-12-14T01:34:52;6.60;99.90
20528;DHT22;23612;50.894;10.700;2023-12-14T01:37:17;6.60;99.90
20528;DHT22;23612;50.894;10.700;2023-12-14T01:39:43;6.60;99.90
20528;DHT22;23612;50.894;10.700;2023-12-14T01:42:08;6.60;99.90
20528;DHT22;23612;50.894;10.700;2023-12-14T01:44:34;6.60;99.90
20528;DHT22;23612;50.894;10.700;2023-12-14T01:46:59;6.60;99.90
20528;DHT22;23612;50.894;10.700;2023-12-14T01:49:25;6.60;99.90
20528;DHT22;23612;50.894;10.700;2023-12-14T01:51:50;6.70;99.90
20528;DHT22;23612;50.894;10.700;2023-12-14T01:54:16;6.70;99.90
20528;DHT22;23612;50.894;10.700;2023-12-14T01:56:41;6.70;99.90
20528;DHT22;23612;50.894;10.700;2023-12-14T01:59:07;6.70;99.90
20528;DHT22;23612;50.894;10.700;2023-12-14T02:01:45;6.70;99.90
20528;DHT22;23612;50.894;10.700;2023-12-14T02:04:12;6.70;99.90
20528;DHT22;23612;50.894;10.700;2023-12-14T02:06:39;6.70;99.90
20528;DHT22;23612;50.894;10.700;2023-12-14T02:09:05;6.70;99.90
20528;DHT22;23612;50.894;10.700;2023-12-14T02:11:30;6.60;99.90
20528;DHT22;23612;50.894;10.700;2023-12-14T02:13:56;6.60;99.90
20528;DHT22;23612;50.894;10.700;2023-12-14T02:16:21;6.70;99.90
20528;DHT22;23612;50.894;10.700;2023-12-14T02:18:47;6.70;99.90
20528;DHT22;23612;50.894;10.700;2023-12-14T02:21:12;6.60;99.90
20528;DHT22;23612;50.894;10.700;2023-12-14T02:23:44;6.60;99.90
20528;DHT22;23612;50.894;10.700;2023-12-14T02:26:10;6.60;99.90
20528;DHT22;23612;50.894;10.700;2023-12-14T02:28:36;6.60;99.90
20528;DHT22;23612;50.894;10.700;2023-12-14T02:31:01;6.60;99.90
20528;DHT22;23612;50.894;10.700;2023-12-14T02:33:27;6.60;99.90
20528;DHT22;23612;50.894;10.700;2023-12-14T02:35:53;6.60;99.90
20528;DHT22;23612;50.894;10.700;2023-12-14T02:38:18;6.60;99.90
20528;DHT22;23612;50.894;10.700;2023-12-14T02:40:44;6.60;99.90
20528;DHT22;23612;50.894;10.700;2023-12-14T02:43:09;6.50;99.90
20528;DHT22;23612;50.894;10.700;2023-12-14T02:45:35;6.50;99.90
20528;DHT22;23612;50.894;10.700;2023-12-14T02:48:00;6.50;99.90
20528;DHT22;23612;50.894;10.700;2023-12-14T02:50:26;6.50;99.90
20528;DHT22;23612;50.894;10.700;2023-12-14T02:52:51;6.50;99.90
20528;DHT22;23612;50.894;10.700;2023-12-14T02:55:16;6.60;99.90
20528;DHT22;23612;50.894;10.700;2023-12-14T02:57:42;6.60;99.90
20528;DHT22;23612;50.894;10.700;2023-12-14T03:00:08;6.60;99.90
20528;DHT22;23612;50.894;10.700;2023-12-14T03:02:34;6.60;99.90
20528;DHT22;23612;50.894;10.700;2023-12-14T03:04:59;6.60;99.90
20528;DHT22;23612;50.894;10.700;2023-12-14T03:07:25;6.60;99.90
20528;DHT22;23612;50.894;10.700;2023-12-14T03:09:50;6.50;99.90
20528;DHT22;23612;50.894;10.700;2023-12-14T03:12:15;6.40;99.90
20528;DHT22;23612;50.894;10.700;2023-12-14T03:14:41;6.30;99.90
20528;DHT22;23612;50.894;10.700;2023-12-14T03:17:07;6.30;99.90
20528;DHT22;23612;50.894;10.700;2023-12-14T03:19:38;6.20;99.90
20528;DHT22;23612;50.894;10.700;2023-12-14T03:22:04;6.20;99.90
20528;DHT22;23612;50.894;10.700;2023-12-14T03:24:30;6.10;99.90
20528;DHT22;23612;50.894;10.700;2023-12-14T03:26:55;6.10;99.90
20528;DHT22;23612;50.894;10.700;2023-12-14T03:29:21;6.00;99.90
20528;DHT22;23612;50.894;10.700;2023-12-14T03:31:46;5.90;99.90
20528;DHT22;23612;50.894;10.700;2023-12-14T03:34:12;5.90;99.90
20528;DHT22;23612;50.894;10.700;2023-12-14T03:36:38;6.00;99.90
20528;DHT22;23612;50.894;10.700;2023-12-14T03:39:04;6.00;99.90
20528;DHT22;23612;50.894;10.700;2023-12-14T03:41:30;6.00;99.90
20528;DHT22;23612;50.894;10.700;2023-12-14T03:43:55;5.90;99.90
20528;DHT22;23612;50.894;10.700;2023-12-14T03:46:21;6.00;99.90
20528;DHT22;23612;50.894;10.700;2023-12-14T03:48:46;6.00;99.90
20528;DHT22;23612;50.894;10.700;2023-12-14T03:51:11;6.00;99.90
20528;DHT22;23612;50.894;10.700;2023-12-14T03:53:37;6.00;99.90
20528;DHT22;23612;50.894;10.700;2023-12-14T03:56:03;6.10;99.90
20528;DHT22;23612;50.894;10.700;2023-12-14T03:58:28;6.10;99.90
20528;DHT22;23612;50.894;10.700;2023-12-14T04:00:54;6.10;99.90
20528;DHT22;23612;50.894;10.700;2023-12-14T04:03:19;6.10;99.90
20528;DHT22;23612;50.894;10.700;2023-12-14T04:05:45;6.10;99.90
20528;DHT22;23612;50.894;10.700;2023-12-14T04:08:10;6.20;99.90
20528;DHT22;23612;50.894;10.700;2023-12-14T04:10:36;6.10;99.90
20528;DHT22;23612;50.894;10.700;2023-12-14T04:13:02;6.10;99.90
20528;DHT22;23612;50.894;10.700;2023-12-14T04:15:27;6.10;99.90
20528;DHT22;23612;50.894;10.700;2023-12-14T04:17:53;6.10;99.90
20528;DHT22;23612;50.894;10.700;2023-12-14T04:20:18;6.10;99.90
20528;DHT22;23612;50.894;10.700;2023-12-14T04:22:44;6.20;99.90
20528;DHT22;23612;50.894;10.700;2023-12-14T04:25:10;6.30;99.90
20528;DHT22;23612;50.894;10.700;2023-12-14T04:27:36;6.30;99.90
20528;DHT22;23612;50.894;10.700;2023-12-14T04:30:01;6.30;99.90
20528;DHT22;23612;50.894;10.700;2023-12-14T04:32:27;6.30;99.90
20528;DHT22;23612;50.894;10.700;2023-12-14T04:34:52;6.30;99.90
20528;DHT22;23612;50.894;10.700;2023-12-14T04:37:18;6.30;99.90
20528;DHT22;23612;50.894;10.700;2023-12-14T04:39:43;6.30;99.90
20528;DHT22;23612;50.894;10.700;2023-12-14T04:42:09;6.30;99.90
20528;DHT22;23612;50.894;10.700;2023-12-14T04:44:34;6.30;99.90
20528;DHT22;23612;50.894;10.700;2023-12-14T04:47:00;6.30;99.90
20528;DHT22;23612;50.894;10.700;2023-12-14T04:49:25;6.30;99.90
20528;DHT22;23612;50.894;10.700;2023-12-14T04:51:51;6.30;99.90
20528;DHT22;23612;50.894;10.700;2023-12-14T04:54:17;6.30;99.90
20528;DHT22;23612;50.894;10.700;2023-12-14T04:56:45;6.40;99.90
20528;DHT22;23612;50.894;10.700;2023-12-14T04:59:11;6.40;99.90
20528;DHT22;23612;50.894;10.700;2023-12-14T05:01:36;6.40;99.90
20528;DHT22;23612;50.894;10.700;2023-12-14T05:04:02;6.30;99.90
20528;DHT22;23612;50.894;10.700;2023-12-14T05:06:28;6.30;99.90
20528;DHT22;23612;50.894;10.700;2023-12-14T05:08:54;6.40;99.90
20528;DHT22;23612;50.894;10.700;2023-12-14T05:11:19;6.40;99.90
20528;DHT22;23612;50.894;10.700;2023-12-14T05:13:45;6.30;99.90
20528;DHT22;23612;50.894;10.700;2023-12-14T05:16:14;6.30;99.90
20528;DHT22;23612;50.894;10.700;2023-12-14T05:18:40;6.30;99.90
20528;DHT22;23612;50.894;10.700;2023-12-14T05:21:05;6.20;99.90
20528;DHT22;23612;50.894;10.700;2023-12-14T05:23:31;6.20;99.90
20528;DHT22;23612;50.894;10.700;2023-12-14T05:25:56;6.20;99.90
20528;DHT22;23612;50.894;10.700;2023-12-14T05:28:22;6.20;99.90
20528;DHT22;23612;50.894;10.700;2023-12-14T05:30:48;6.20;99.90
20528;DHT22;23612;50.894;10.700;2023-12-14T05:33:13;6.10;99.90
20528;DHT22;23612;50.894;10.700;2023-12-14T05:35:39;6.10;99.90
20528;DHT22;23612;50.894;10.700;2023-12-14T05:38:05;6.10;99.90
20528;DHT22;23612;50.894;10.700;2023-12-14T05:40:30;6.20;99.90
20528;DHT22;23612;50.894;10.700;2023-12-14T05:42:56;6.20;99.90
20528;DHT22;23612;50.894;10.700;2023-12-14T05:45:22;6.20;99.90
20528;DHT22;23612;50.894;10.700;2023-12-14T05:47:47;6.20;99.90
20528;DHT22;23612;50.894;10.700;2023-12-14T05:50:13;6.20;99.90
20528;DHT22;23612;50.894;10.700;2023-12-14T05:52:39;6.20;99.90
20528;DHT22;23612;50.894;10.700;2023-12-14T05:55:08;6.30;99.90
20528;DHT22;23612;50.894;10.700;2023-12-14T05:57:35;6.30;99.90
20528;DHT22;23612;50.894;10.700;2023-12-14T06:00:01;6.30;99.90
20528;DHT22;23612;50.894;10.700;2023-12-14T06:02:26;6.30;99.90
20528;DHT22;23612;50.894;10.700;2023-12-14T06:04:52;6.20;99.90
20528;DHT22;23612;50.894;10.700;2023-12-14T06:07:17;6.20;99.90
20528;DHT22;23612;50.894;10.700;2023-12-14T06:09:43;6.30;99.90
20528;DHT22;23612;50.894;10.700;2023-12-14T06:12:09;6.20;99.90
20528;DHT22;23612;50.894;10.700;2023-12-14T06:14:35;6.20;99.90
20528;DHT22;23612;50.894;10.700;2023-12-14T06:17:00;6.30;99.90
20528;DHT22;23612;50.894;10.700;2023-12-14T06:19:26;6.30;99.90
20528;DHT22;23612;50.894;10.700;2023-12-14T06:21:51;6.30;99.90
20528;DHT22;23612;50.894;10.700;2023-12-14T06:24:17;6.30;99.90
20528;DHT22;23612;50.894;10.700;2023-12-14T06:26:46;6.30;99.90
20528;DHT22;23612;50.894;10.700;2023-12-14T06:29:11;6.30;99.90
20528;DHT22;23612;50.894;10.700;2023-12-14T06:31:38;6.20;99.90
20528;DHT22;23612;50.894;10.700;2023-12-14T06:34:04;6.20;99.90
20528;DHT22;23612;50.894;10.700;2023-12-14T06:36:30;6.20;99.90
20528;DHT22;23612;50.894;10.700;2023-12-14T06:38:58;6.10;99.90
20528;DHT22;23612;50.894;10.700;2023-12-14T06:41:25;6.10;99.90
20528;DHT22;23612;50.894;10.700;2023-12-14T06:43:50;6.10;99.90
20528;DHT22;23612;50.894;10.700;2023-12-14T06:46:17;6.00;99.90
20528;DHT22;23612;50.894;10.700;2023-12-14T06:48:43;6.00;99.90
20528;DHT22;23612;50.894;10.700;2023-12-14T06:51:08;6.00;99.90
20528;DHT22;23612;50.894;10.700;2023-12-14T06:53:34;6.00;99.90
20528;DHT22;23612;50.894;10.700;2023-12-14T06:56:00;6.00;99.90
20528;DHT22;23612;50.894;10.700;2023-12-14T06:58:26;6.00;99.90
20528;DHT22;23612;50.894;10.700;2023-12-14T07:00:51;6.00;99.90
20528;DHT22;23612;50.894;10.700;2023-12-14T07:03:17;6.00;99.90
20528;DHT22;23612;50.894;10.700;2023-12-14T07:05:42;5.90;99.90
20528;DHT22;23612;50.894;10.700;2023-12-14T07:08:08;5.90;99.90
20528;DHT22;23612;50.894;10.700;2023-12-14T07:10:34;5.80;99.90
20528;DHT22;23612;50.894;10.700;2023-12-14T07:12:59;5.80;99.90
20528;DHT22;23612;50.894;10.700;2023-12-14T07:15:25;5.80;99.90
20528;DHT22;23612;50.894;10.700;2023-12-14T07:17:50;5.80;99.90
20528;DHT22;23612;50.894;10.700;2023-12-14T07:20:16;5.80;99.90
20528;DHT22;23612;50.894;10.700;2023-12-14T07:22:41;5.70;99.90
20528;DHT22;23612;50.894;10.700;2023-12-14T07:25:07;5.60;99.90
20528;DHT22;23612;50.894;10.700;2023-12-14T07:27:34;5.50;99.90
20528;DHT22;23612;50.894;10.700;2023-12-14T07:29:59;5.40;99.90
20528;DHT22;23612;50.894;10.700;2023-12-14T07:32:25;5.40;99.90
20528;DHT22;23612;50.894;10.700;2023-12-14T07:34:50;5.30;99.90
20528;DHT22;23612;50.894;10.700;2023-12-14T07:37:16;5.30;99.90
20528;DHT22;23612;50.894;10.700;2023-12-14T07:39:41;5.30;99.90
20528;DHT22;23612;50.894;10.700;2023-12-14T07:42:07;5.30;99.90
20528;DHT22;23612;50.894;10.700;2023-12-14T07:44:32;5.30;99.90
20528;DHT22;23612;50.894;10.700;2023-12-14T07:47:00;5.30;99.90
20528;DHT22;23612;50.894;10.700;2023-12-14T07:49:25;5.30;99.90
20528;DHT22;23612;50.894;10.700;2023-12-14T07:51:51;5.30;99.90
20528;DHT22;23612;50.894;10.700;2023-12-14T07:54:17;5.20;99.90
20528;DHT22;23612;50.894;10.700;2023-12-14T07:56:43;5.20;99.90
20528;DHT22;23612;50.894;10.700;2023-12-14T07:59:09;5.20;99.90
20528;DHT22;23612;50.894;10.700;2023-12-14T08:01:35;5.30;99.90
20528;DHT22;23612;50.894;10.700;2023-12-14T08:04:01;5.20;99.90
20528;DHT22;23612;50.894;10.700;2023-12-14T08:06:27;5.20;99.90
20528;DHT22;23612;50.894;10.700;2023-12-14T08:08:52;5.10;99.90
20528;DHT22;23612;50.894;10.700;2023-12-14T08:11:18;5.10;99.90
20528;DHT22;23612;50.894;10.700;2023-12-14T08:13:43;5.00;99.90
20528;DHT22;23612;50.894;10.700;2023-12-14T08:16:09;5.00;99.90
20528;DHT22;23612;50.894;10.700;2023-12-14T08:18:36;5.00;99.90
20528;DHT22;23612;50.894;10.700;2023-12-14T08:21:02;5.00;99.90
20528;DHT22;23612;50.894;10.700;2023-12-14T08:23:28;5.00;99.90
20528;DHT22;23612;50.894;10.700;2023-12-14T08:25:55;5.10;99.90
20528;DHT22;23612;50.894;10.700;2023-12-14T08:28:24;5.10;99.90
20528;DHT22;23612;50.894;10.700;2023-12-14T08:30:50;5.10;99.90
20528;DHT22;23612;50.894;10.700;2023-12-14T08:33:16;5.10;99.90
20528;DHT22;23612;50.894;10.700;2023-12-14T08:35:41;5.10;99.90
20528;DHT22;23612;50.894;10.700;2023-12-14T08:38:07;5.20;99.90
20528;DHT22;23612;50.894;10.700;2023-12-14T08:40:32;5.20;99.90
20528;DHT22;23612;50.894;10.700;2023-12-14T08:42:58;5.20;99.90
20528;DHT22;23612;50.894;10.700;2023-12-14T08:45:24;5.20;99.90
20528;DHT22;23612;50.894;10.700;2023-12-14T08:47:49;5.30;99.90
20528;DHT22;23612;50.894;10.700;2023-12-14T08:50:15;5.30;99.90
20528;DHT22;23612;50.894;10.700;2023-12-14T08:52:41;5.30;99.90
20528;DHT22;23612;50.894;10.700;2023-12-14T08:55:07;5.30;99.90
20528;DHT22;23612;50.894;10.700;2023-12-14T08:57:33;5.30;99.90
20528;DHT22;23612;50.894;10.700;2023-12-14T08:59:59;5.40;99.90
20528;DHT22;23612;50.894;10.700;2023-12-14T09:02:24;5.40;99.90
20528;DHT22;23612;50.894;10.700;2023-12-14T09:04:50;5.30;99.90
20528;DHT22;23612;50.894;10.700;2023-12-14T09:07:17;5.30;99.90
20528;DHT22;23612;50.894;10.700;2023-12-14T09:09:42;5.30;99.90
20528;DHT22;23612;50.894;10.700;2023-12-14T09:12:08;5.30;99.90
20528;DHT22;23612;50.894;10.700;2023-12-14T09:14:33;5.30;99.90
20528;DHT22;23612;50.894;10.700;2023-12-14T09:16:59;5.30;99.90
20528;DHT22;23612;50.894;10.700;2023-12-14T09:19:24;5.30;99.90
20528;DHT22;23612;50.894;10.700;2023-12-14T09:21:49;5.30;99.90
20528;DHT22;23612;50.894;10.700;2023-12-14T09:24:15;5.40;99.90
20528;DHT22;23612;50.894;10.700;2023-12-14T09:26:40;5.40;99.90
20528;DHT22;23612;50.894;10.700;2023-12-14T09:29:06;5.40;99.90
20528;DHT22;23612;50.894;10.700;2023-12-14T09:31:32;5.30;99.90
20528;DHT22;23612;50.894;10.700;2023-12-14T09:33:57;5.40;99.90
20528;DHT22;23612;50.894;10.700;2023-12-14T09:36:23;5.40;99.90
20528;DHT22;23612;50.894;10.700;2023-12-14T09:38:49;5.40;99.90
20528;DHT22;23612;50.894;10.700;2023-12-14T09:41:14;5.40;99.90
20528;DHT22;23612;50.894;10.700;2023-12-14T09:43:40;5.40;99.90
20528;DHT22;23612;50.894;10.700;2023-12-14T09:46:06;5.40;99.90
20528;DHT22;23612;50.894;10.700;2023-12-14T09:48:33;5.50;99.90
20528;DHT22;23612;50.894;10.700;2023-12-14T09:50:59;5.40;99.90
20528;DHT22;23612;50.894;10.700;2023-12-14T09:53:24;5.50;99.90
20528;DHT22;23612;50.894;10.700;2023-12-14T09:55:50;5.40;99.90
20528;DHT22;23612;50.894;10.700;2023-12-14T09:58:15;5.40;99.90
20528;DHT22;23612;50.894;10.700;2023-12-14T10:00:41;5.40;99.90
20528;DHT22;23612;50.894;10.700;2023-12-14T10:03:24;5.30;99.90
20528;DHT22;23612;50.894;10.700;2023-12-14T10:05:52;5.40;99.90
20528;DHT22;23612;50.894;10.700;2023-12-14T10:08:18;5.40;99.90
20528;DHT22;23612;50.894;10.700;2023-12-14T10:10:46;5.40;99.90
20528;DHT22;23612;50.894;10.700;2023-12-14T10:13:12;5.40;99.90
20528;DHT22;23612;50.894;10.700;2023-12-14T10:15:45;5.40;99.90
20528;DHT22;23612;50.894;10.700;2023-12-14T10:18:11;5.30;99.90
20528;DHT22;23612;50.894;10.700;2023-12-14T10:20:37;5.20;99.90
20528;DHT22;23612;50.894;10.700;2023-12-14T10:23:05;5.10;99.90
20528;DHT22;23612;50.894;10.700;2023-12-14T10:25:31;5.00;99.90
20528;DHT22;23612;50.894;10.700;2023-12-14T10:27:57;4.90;99.90
20528;DHT22;23612;50.894;10.700;2023-12-14T10:30:22;4.90;99.90
20528;DHT22;23612;50.894;10.700;2023-12-14T10:32:48;4.80;99.90
20528;DHT22;23612;50.894;10.700;2023-12-14T10:35:15;4.70;99.90
20528;DHT22;23612;50.894;10.700;2023-12-14T10:37:46;4.70;99.90
20528;DHT22;23612;50.894;10.700;2023-12-14T10:40:14;4.70;99.90
20528;DHT22;23612;50.894;10.700;2023-12-14T10:42:44;4.70;99.90
20528;DHT22;23612;50.894;10.700;2023-12-14T10:45:12;4.70;99.90
20528;DHT22;23612;50.894;10.700;2023-12-14T10:47:43;4.80;99.90
20528;DHT22;23612;50.894;10.700;2023-12-14T10:50:10;4.70;99.90
20528;DHT22;23612;50.894;10.700;2023-12-14T10:52:37;4.70;99.90
20528;DHT22;23612;50.894;10.700;2023-12-14T10:55:11;4.70;99.90
20528;DHT22;23612;50.894;10.700;2023-12-14T10:57:40;4.70;99.90
20528;DHT22;23612;50.894;10.700;2023-12-14T11:00:06;4.70;99.90
20528;DHT22;23612;50.894;10.700;2023-12-14T11:02:45;4.80;99.90
20528;DHT22;23612;50.894;10.700;2023-12-14T11:05:12;4.80;99.90
20528;DHT22;23612;50.894;10.700;2023-12-14T11:07:52;4.70;99.90
20528;DHT22;23612;50.894;10.700;2023-12-14T11:10:27;4.70;99.90
20528;DHT22;23612;50.894;10.700;2023-12-14T11:13:00;4.70;99.90
20528;DHT22;23612;50.894;10.700;2023-12-14T11:15:26;4.60;99.90
20528;DHT22;23612;50.894;10.700;2023-12-14T11:23:33;4.50;99.90
20528;DHT22;23612;50.894;10.700;2023-12-14T11:26:05;4.60;99.90
20528;DHT22;23612;50.894;10.700;2023-12-14T11:28:39;4.70;99.90
20528;DHT22;23612;50.894;10.700;2023-12-14T11:31:10;4.70;99.90
20528;DHT22;23612;50.894;10.700;2023-12-14T11:33:36;4.80;99.90
20528;DHT22;23612;50.894;10.700;2023-12-14T11:36:02;4.70;99.90
20528;DHT22;23612;50.894;10.700;2023-12-14T11:38:31;4.80;99.90
20528;DHT22;23612;50.894;10.700;2023-12-14T11:40:58;4.80;99.90
20528;DHT22;23612;50.894;10.700;2023-12-14T11:43:24;4.80;99.90
20528;DHT22;23612;50.894;10.700;2023-12-14T11:45:52;4.70;99.90
20528;DHT22;23612;50.894;10.700;2023-12-14T11:48:18;4.70;99.90
20528;DHT22;23612;50.894;10.700;2023-12-14T11:50:45;4.60;99.90
20528;DHT22;23612;50.894;10.700;2023-12-14T11:53:11;4.60;99.90
20528;DHT22;23612;50.894;10.700;2023-12-14T11:55:42;4.50;99.90
20528;DHT22;23612;50.894;10.700;2023-12-14T11:58:08;4.50;99.90
20528;DHT22;23612;50.894;10.700;2023-12-14T12:00:34;4.50;99.90
20528;DHT22;23612;50.894;10.700;2023-12-14T12:03:19;4.40;99.90
20528;DHT22;23612;50.894;10.700;2023-12-14T12:05:47;4.40;99.90
20528;DHT22;23612;50.894;10.700;2023-12-14T12:08:15;4.50;99.90
20528;DHT22;23612;50.894;10.700;2023-12-14T12:10:41;4.40;99.90
20528;DHT22;23612;50.894;10.700;2023-12-14T12:13:12;4.40;99.90
20528;DHT22;23612;50.894;10.700;2023-12-14T12:15:38;4.30;99.90
20528;DHT22;23612;50.894;10.700;2023-12-14T12:18:05;4.30;99.90
20528;DHT22;23612;50.894;10.700;2023-12-14T12:20:31;4.30;99.90
20528;DHT22;23612;50.894;10.700;2023-12-14T12:22:57;4.30;99.90
20528;DHT22;23612;50.894;10.700;2023-12-14T12:25:23;4.30;99.90
20528;DHT22;23612;50.894;10.700;2023-12-14T12:27:49;4.20;99.90
20528;DHT22;23612;50.894;10.700;2023-12-14T12:30:14;4.20;99.90
20528;DHT22;23612;50.894;10.700;2023-12-14T12:32:41;4.20;99.90
20528;DHT22;23612;50.894;10.700;2023-12-14T12:35:07;4.20;99.90
20528;DHT22;23612;50.894;10.700;2023-12-14T12:37:33;4.10;99.90
20528;DHT22;23612;50.894;10.700;2023-12-14T12:39:58;4.10;99.90
20528;DHT22;23612;50.894;10.700;2023-12-14T12:42:24;4.10;99.90
20528;DHT22;23612;50.894;10.700;2023-12-14T12:44:51;4.10;99.90
20528;DHT22;23612;50.894;10.700;2023-12-14T12:47:16;4.10;99.90
20528;DHT22;23612;50.894;10.700;2023-12-14T12:49:42;4.10;99.90
20528;DHT22;23612;50.894;10.700;2023-12-14T12:52:07;4.10;99.90
20528;DHT22;23612;50.894;10.700;2023-12-14T12:54:33;4.10;99.90
20528;DHT22;23612;50.894;10.700;2023-12-14T12:56:58;4.10;99.90
20528;DHT22;23612;50.894;10.700;2023-12-14T12:59:24;4.00;99.90
20528;DHT22;23612;50.894;10.700;2023-12-14T13:01:49;4.00;99.90
20528;DHT22;23612;50.894;10.700;2023-12-14T13:04:19;4.00;99.90
20528;DHT22;23612;50.894;10.700;2023-12-14T13:06:46;4.10;99.90
20528;DHT22;23612;50.894;10.700;2023-12-14T13:09:13;4.10;99.90
20528;DHT22;23612;50.894;10.700;2023-12-14T13:11:39;4.10;99.90
20528;DHT22;23612;50.894;10.700;2023-12-14T13:14:05;4.10;99.90
20528;DHT22;23612;50.894;10.700;2023-12-14T13:16:33;4.10;99.90
20528;DHT22;23612;50.894;10.700;2023-12-14T13:18:59;4.10;99.90
20528;DHT22;23612;50.894;10.700;2023-12-14T13:21:25;4.00;99.90
20528;DHT22;23612;50.894;10.700;2023-12-14T13:23:50;4.00;99.90
20528;DHT22;23612;50.894;10.700;2023-12-14T13:26:16;4.00;99.90
20528;DHT22;23612;50.894;10.700;2023-12-14T13:28:42;3.90;99.90
20528;DHT22;23612;50.894;10.700;2023-12-14T13:31:07;3.90;99.90
20528;DHT22;23612;50.894;10.700;2023-12-14T13:33:33;3.90;99.90
20528;DHT22;23612;50.894;10.700;2023-12-14T13:35:58;3.80;99.90
20528;DHT22;23612;50.894;10.700;2023-12-14T13:38:24;3.80;99.90
20528;DHT22;23612;50.894;10.700;2023-12-14T13:40:50;3.80;99.90
20528;DHT22;23612;50.894;10.700;2023-12-14T13:43:15;3.80;99.90
20528;DHT22;23612;50.894;10.700;2023-12-14T13:45:41;3.70;99.90
20528;DHT22;23612;50.894;10.700;2023-12-14T13:48:07;3.70;99.90
20528;DHT22;23612;50.894;10.700;2023-12-14T13:50:33;3.70;99.90
20528;DHT22;23612;50.894;10.700;2023-12-14T13:52:59;3.70;99.90
20528;DHT22;23612;50.894;10.700;2023-12-14T13:55:25;3.70;99.90
20528;DHT22;23612;50.894;10.700;2023-12-14T13:57:50;3.60;99.90
20528;DHT22;23612;50.894;10.700;2023-12-14T14:00:16;3.70;99.90
20528;DHT22;23612;50.894;10.700;2023-12-14T14:02:42;3.60;99.90
20528;DHT22;23612;50.894;10.700;2023-12-14T14:05:07;3.70;99.90
20528;DHT22;23612;50.894;10.700;2023-12-14T14:07:33;3.70;99.90
20528;DHT22;23612;50.894;10.700;2023-12-14T14:09:58;3.80;99.90
20528;DHT22;23612;50.894;10.700;2023-12-14T14:12:24;3.80;99.90
20528;DHT22;23612;50.894;10.700;2023-12-14T14:14:49;3.80;99.90
20528;DHT22;23612;50.894;10.700;2023-12-14T14:17:15;3.80;99.90
20528;DHT22;23612;50.894;10.700;2023-12-14T14:19:40;3.70;99.90
20528;DHT22;23612;50.894;10.700;2023-12-14T14:22:05;3.80;99.90
20528;DHT22;23612;50.894;10.700;2023-12-14T14:24:31;3.70;99.90
20528;DHT22;23612;50.894;10.700;2023-12-14T14:26:57;3.70;99.90
20528;DHT22;23612;50.894;10.700;2023-12-14T14:29:22;3.70;99.90
20528;DHT22;23612;50.894;10.700;2023-12-14T14:31:48;3.70;99.90
20528;DHT22;23612;50.894;10.700;2023-12-14T14:34:13;3.70;99.90
20528;DHT22;23612;50.894;10.700;2023-12-14T14:36:39;3.70;99.90
20528;DHT22;23612;50.894;10.700;2023-12-14T14:39:04;3.70;99.90
20528;DHT22;23612;50.894;10.700;2023-12-14T14:41:30;3.60;99.90
20528;DHT22;23612;50.894;10.700;2023-12-14T14:43:56;3.60;99.90
20528;DHT22;23612;50.894;10.700;2023-12-14T14:46:22;3.60;99.90
20528;DHT22;23612;50.894;10.700;2023-12-14T14:48:48;3.50;99.90
20528;DHT22;23612;50.894;10.700;2023-12-14T14:51:14;3.50;99.90
20528;DHT22;23612;50.894;10.700;2023-12-14T14:53:39;3.40;99.90
20528;DHT22;23612;50.894;10.700;2023-12-14T14:56:09;3.40;99.90
20528;DHT22;23612;50.894;10.700;2023-12-14T14:58:34;3.40;99.90
20528;DHT22;23612;50.894;10.700;2023-12-14T15:01:00;3.30;99.90
20528;DHT22;23612;50.894;10.700;2023-12-14T15:03:25;3.30;99.90
20528;DHT22;23612;50.894;10.700;2023-12-14T15:05:51;3.20;99.90
20528;DHT22;23612;50.894;10.700;2023-12-14T15:08:16;3.20;99.90
20528;DHT22;23612;50.894;10.700;2023-12-14T15:10:42;3.20;99.90
20528;DHT22;23612;50.894;10.700;2023-12-14T15:13:07;3.30;99.90
20528;DHT22;23612;50.894;10.700;2023-12-14T15:15:32;3.30;99.90
20528;DHT22;23612;50.894;10.700;2023-12-14T15:17:58;3.20;99.90
20528;DHT22;23612;50.894;10.700;2023-12-14T15:20:24;3.20;99.90
20528;DHT22;23612;50.894;10.700;2023-12-14T15:22:49;3.10;99.90
20528;DHT22;23612;50.894;10.700;2023-12-14T15:25:15;3.10;99.90
20528;DHT22;23612;50.894;10.700;2023-12-14T15:27:41;3.10;99.90